createdAt,value
2017-08-08T00:00:36.322Z,2.70
2017-08-08T00:01:35.867Z,2.80
2017-08-08T00:02:36.449Z,2.80
2017-08-08T00:03:36.410Z,2.80
2017-08-08T00:04:35.792Z,2.90
2017-08-08T00:05:35.789Z,2.70
2017-08-08T00:06:36.317Z,2.80
2017-08-08T00:07:35.772Z,2.90
2017-08-08T00:08:35.760Z,2.80
2017-08-08T00:09:35.778Z,2.80
2017-08-08T00:10:35.789Z,2.80
2017-08-08T00:11:36.826Z,2.50
2017-08-08T00:12:35.788Z,2.60
2017-08-08T00:13:36.611Z,3.10
2017-08-08T00:14:36.403Z,2.60
2017-08-08T00:15:35.745Z,3.00
2017-08-08T00:16:36.432Z,3.10
2017-08-08T00:17:35.750Z,2.60
2017-08-08T00:18:36.348Z,2.80
2017-08-08T00:19:35.760Z,2.80
2017-08-08T00:20:36.342Z,2.90
2017-08-08T00:21:35.837Z,2.80
2017-08-08T00:22:35.820Z,3.00
2017-08-08T00:23:36.428Z,2.90
2017-08-08T00:24:36.528Z,3.00
2017-08-08T00:25:35.676Z,3.20
2017-08-08T00:26:35.806Z,2.80
2017-08-08T00:27:35.807Z,2.90
2017-08-08T00:28:36.629Z,2.70
2017-08-08T00:29:35.924Z,2.70
2017-08-08T00:30:36.356Z,2.70
2017-08-08T00:31:36.870Z,3.00
2017-08-08T00:32:36.512Z,3.00
2017-08-08T00:33:35.856Z,2.80
2017-08-08T00:34:35.891Z,2.90
2017-08-08T00:35:35.740Z,2.90
2017-08-08T00:36:36.367Z,3.10
2017-08-08T00:37:36.371Z,2.80
2017-08-08T00:38:35.730Z,3.00
2017-08-08T00:39:35.731Z,2.90
2017-08-08T00:40:35.690Z,2.90
2017-08-08T00:41:35.780Z,2.80
2017-08-08T00:42:36.379Z,2.90
2017-08-08T00:43:35.766Z,3.10
2017-08-08T00:44:36.564Z,3.00
2017-08-08T00:45:35.862Z,3.10
2017-08-08T00:46:36.381Z,2.80
2017-08-08T00:47:36.387Z,2.90
2017-08-08T00:48:35.651Z,2.90
2017-08-08T00:49:35.816Z,3.00
2017-08-08T00:50:36.531Z,2.60
2017-08-08T00:51:35.730Z,2.80
2017-08-08T00:52:35.849Z,2.60
2017-08-08T00:53:36.620Z,2.90
2017-08-08T00:54:35.873Z,2.80
2017-08-08T00:55:35.795Z,3.10
2017-08-08T00:56:36.646Z,2.70
2017-08-08T00:57:36.400Z,2.80
2017-08-08T00:58:35.733Z,2.70
2017-08-08T00:59:37.406Z,2.90
2017-08-08T01:00:35.738Z,3.00
2017-08-08T01:01:35.707Z,3.00
2017-08-08T01:02:35.730Z,2.90
2017-08-08T01:03:36.415Z,2.80
2017-08-08T01:04:35.760Z,2.70
2017-08-08T01:05:35.661Z,2.90
2017-08-08T01:06:35.785Z,2.70
2017-08-08T01:07:36.451Z,3.20
2017-08-08T01:08:36.223Z,3.10
2017-08-08T01:09:35.700Z,2.90
2017-08-08T01:10:36.617Z,3.30
2017-08-08T01:11:36.423Z,3.30
2017-08-08T01:12:35.725Z,2.80
2017-08-08T01:13:36.428Z,3.00
2017-08-08T01:14:37.428Z,3.00
2017-08-08T01:15:35.721Z,2.70
2017-08-08T01:16:35.740Z,2.60
2017-08-08T01:17:36.436Z,2.70
2017-08-08T01:18:37.447Z,3.10
2017-08-08T01:19:35.764Z,2.90
2017-08-08T01:20:36.439Z,2.90
2017-08-08T01:21:35.766Z,3.10
2017-08-08T01:22:37.448Z,2.70
2017-08-08T01:23:35.890Z,2.80
2017-08-08T01:24:36.478Z,3.10
2017-08-08T01:25:36.572Z,2.80
2017-08-08T01:26:36.469Z,2.90
2017-08-08T01:27:35.934Z,3.30
2017-08-08T01:28:35.700Z,2.90
2017-08-08T01:29:36.497Z,3.00
2017-08-08T01:30:36.462Z,3.00
2017-08-08T01:31:36.460Z,2.90
2017-08-08T01:32:35.781Z,3.30
2017-08-08T01:33:35.723Z,2.80
2017-08-08T01:34:35.745Z,2.80
2017-08-08T01:35:35.637Z,3.10
2017-08-08T01:36:35.715Z,2.90
2017-08-08T01:37:35.692Z,3.00
2017-08-08T01:38:35.720Z,2.90
2017-08-08T01:39:35.745Z,3.10
2017-08-08T01:40:35.781Z,3.00
2017-08-08T01:41:36.488Z,3.20
2017-08-08T01:42:36.587Z,2.70
2017-08-08T01:43:36.704Z,2.90
2017-08-08T01:44:36.477Z,2.80
2017-08-08T01:45:36.481Z,2.90
2017-08-08T01:46:36.508Z,3.30
2017-08-08T01:47:35.730Z,3.40
2017-08-08T01:48:35.657Z,3.20
2017-08-08T01:49:35.758Z,3.00
2017-08-08T01:50:35.727Z,2.90
2017-08-08T01:51:35.794Z,3.10
2017-08-08T01:52:36.490Z,2.70
2017-08-08T01:53:36.607Z,3.10
2017-08-08T01:54:35.787Z,3.00
2017-08-08T01:55:35.803Z,2.80
2017-08-08T01:56:35.850Z,2.90
2017-08-08T01:57:36.727Z,2.70
2017-08-08T01:58:36.503Z,2.90
2017-08-08T01:59:37.010Z,3.10
2017-08-08T02:00:36.696Z,2.90
2017-08-08T02:01:36.505Z,2.70
2017-08-08T02:02:35.696Z,3.10
2017-08-08T02:03:35.733Z,2.80
2017-08-08T02:04:35.738Z,2.90
2017-08-08T02:05:36.513Z,2.90
2017-08-08T02:06:35.631Z,2.90
2017-08-08T02:07:35.689Z,3.10
2017-08-08T02:08:36.643Z,3.00
2017-08-08T02:09:35.842Z,2.90
2017-08-08T02:10:36.616Z,2.80
2017-08-08T02:11:36.521Z,2.80
2017-08-08T02:12:35.650Z,2.80
2017-08-08T02:13:35.608Z,2.90
2017-08-08T02:14:35.752Z,3.00
2017-08-08T02:15:36.629Z,3.10
2017-08-08T02:16:35.810Z,3.30
2017-08-08T02:17:35.662Z,3.10
2017-08-08T02:18:36.536Z,3.10
2017-08-08T02:19:35.650Z,3.10
2017-08-08T02:20:35.703Z,2.90
2017-08-08T02:21:35.651Z,3.10
2017-08-08T02:22:36.538Z,3.00
2017-08-08T02:23:36.236Z,3.10
2017-08-08T02:24:35.734Z,3.00
2017-08-08T02:25:35.699Z,3.20
2017-08-08T02:26:36.550Z,3.00
2017-08-08T02:27:35.791Z,2.90
2017-08-08T02:28:35.665Z,2.90
2017-08-08T02:29:36.550Z,3.00
2017-08-08T02:30:35.722Z,3.20
2017-08-08T02:31:36.159Z,3.00
2017-08-08T02:32:35.679Z,2.90
2017-08-08T02:33:35.669Z,2.80
2017-08-08T02:34:36.274Z,3.00
2017-08-08T02:35:35.723Z,3.10
2017-08-08T02:36:36.564Z,2.80
2017-08-08T02:37:36.088Z,3.10
2017-08-08T02:38:35.777Z,2.80
2017-08-08T02:39:35.666Z,2.80
2017-08-08T02:40:36.571Z,3.00
2017-08-08T02:41:35.825Z,3.00
2017-08-08T02:42:35.712Z,3.00
2017-08-08T02:43:35.745Z,3.40
2017-08-08T02:44:36.087Z,3.10
2017-08-08T02:45:35.851Z,2.90
2017-08-08T02:46:35.645Z,3.40
2017-08-08T02:47:36.088Z,3.00
2017-08-08T02:48:36.209Z,3.40
2017-08-08T02:49:36.084Z,2.80
2017-08-08T02:50:36.775Z,2.70
2017-08-08T02:51:35.857Z,3.10
2017-08-08T02:52:36.088Z,3.20
2017-08-08T02:53:35.708Z,3.10
2017-08-08T02:54:36.251Z,3.10
2017-08-08T02:55:35.643Z,3.10
2017-08-08T02:56:35.665Z,3.20
2017-08-08T02:57:35.727Z,3.10
2017-08-08T02:58:36.257Z,3.10
2017-08-08T02:59:36.106Z,2.90
2017-08-08T03:00:36.263Z,3.00
2017-08-08T03:01:35.708Z,3.10
2017-08-08T03:02:35.680Z,3.00
2017-08-08T03:03:35.784Z,3.30
2017-08-08T03:04:36.108Z,3.40
2017-08-08T03:05:35.699Z,3.20
2017-08-08T03:06:36.611Z,2.80
2017-08-08T03:07:36.285Z,3.00
2017-08-08T03:08:36.148Z,3.40
2017-08-08T03:09:35.682Z,2.90
2017-08-08T03:10:35.624Z,3.00
2017-08-08T03:11:35.640Z,3.10
2017-08-08T03:12:35.805Z,3.00
2017-08-08T03:13:35.693Z,3.10
2017-08-08T03:14:35.776Z,3.20
2017-08-08T03:15:36.129Z,2.80
2017-08-08T03:16:36.224Z,2.90
2017-08-08T03:17:35.799Z,3.30
2017-08-08T03:18:36.138Z,3.30
2017-08-08T03:19:36.256Z,3.00
2017-08-08T03:20:35.640Z,2.90
2017-08-08T03:21:36.511Z,3.10
2017-08-08T03:22:36.637Z,3.30
2017-08-08T03:23:35.659Z,2.90
2017-08-08T03:24:35.625Z,3.20
2017-08-08T03:25:35.728Z,3.40
2017-08-08T03:26:38.143Z,3.20
2017-08-08T03:27:36.185Z,3.20
2017-08-08T03:28:36.151Z,3.30
2017-08-08T03:29:35.657Z,3.00
2017-08-08T03:30:35.803Z,3.00
2017-08-08T03:31:35.895Z,3.00
2017-08-08T03:32:35.735Z,3.30
2017-08-08T03:33:35.752Z,3.00
2017-08-08T03:34:36.156Z,3.20
2017-08-08T03:35:35.719Z,3.00
2017-08-08T03:36:35.772Z,3.00
2017-08-08T03:37:36.312Z,3.00
2017-08-08T03:38:35.651Z,3.00
2017-08-08T03:39:35.698Z,3.20
2017-08-08T03:40:35.656Z,3.10
2017-08-08T03:41:35.697Z,3.10
2017-08-08T03:42:36.310Z,3.00
2017-08-08T03:43:36.201Z,3.00
2017-08-08T03:44:35.747Z,3.10
2017-08-08T03:45:36.174Z,2.90
2017-08-08T03:46:36.889Z,3.00
2017-08-08T03:47:35.663Z,3.00
2017-08-08T03:48:35.623Z,2.80
2017-08-08T03:49:36.179Z,3.10
2017-08-08T03:50:35.714Z,3.10
2017-08-08T03:51:35.668Z,3.40
2017-08-08T03:52:35.801Z,3.10
2017-08-08T03:53:35.648Z,3.40
2017-08-08T03:54:35.610Z,3.20
2017-08-08T03:55:35.638Z,3.40
2017-08-08T03:56:35.709Z,2.80
2017-08-08T03:57:35.611Z,3.00
2017-08-08T03:58:37.206Z,3.00
2017-08-08T03:59:35.624Z,2.90
2017-08-08T04:00:35.719Z,3.40
2017-08-08T04:01:35.634Z,3.20
2017-08-08T04:02:36.549Z,3.00
2017-08-08T04:03:35.701Z,3.00
2017-08-08T04:04:36.206Z,3.10
2017-08-08T04:05:35.731Z,3.00
2017-08-08T04:06:36.210Z,3.00
2017-08-08T04:07:36.308Z,3.10
2017-08-08T04:08:35.619Z,3.40
2017-08-08T04:09:35.736Z,3.10
2017-08-08T04:10:35.664Z,2.90
2017-08-08T04:11:35.674Z,3.40
2017-08-08T04:12:35.709Z,3.10
2017-08-08T04:13:35.807Z,3.20
2017-08-08T04:14:35.629Z,3.20
2017-08-08T04:15:35.663Z,3.20
2017-08-08T04:16:37.225Z,3.20
2017-08-08T04:17:35.711Z,3.50
2017-08-08T04:18:36.728Z,3.40
2017-08-08T04:19:36.229Z,3.50
2017-08-08T04:20:35.692Z,3.70
2017-08-08T04:21:36.457Z,3.30
2017-08-08T04:22:36.234Z,3.00
2017-08-08T04:23:35.623Z,3.30
2017-08-08T04:24:36.238Z,3.40
2017-08-08T04:25:36.288Z,3.40
2017-08-08T04:26:35.663Z,3.20
2017-08-08T04:27:36.290Z,3.40
2017-08-08T04:28:35.629Z,3.30
2017-08-08T04:29:36.384Z,3.00
2017-08-08T04:30:36.646Z,3.60
2017-08-08T04:31:35.631Z,3.80
2017-08-08T04:32:35.689Z,3.30
2017-08-08T04:33:36.884Z,3.80
2017-08-08T04:34:35.700Z,3.00
2017-08-08T04:35:36.396Z,3.40
2017-08-08T04:36:35.710Z,3.40
2017-08-08T04:37:35.652Z,3.30
2017-08-08T04:38:35.701Z,3.10
2017-08-08T04:39:35.643Z,3.20
2017-08-08T04:40:35.606Z,3.30
2017-08-08T04:41:35.641Z,3.10
2017-08-08T04:42:36.270Z,3.40
2017-08-08T04:43:35.703Z,3.40
2017-08-08T04:44:35.639Z,3.50
2017-08-08T04:45:35.590Z,3.20
2017-08-08T04:46:36.273Z,3.40
2017-08-08T04:47:36.469Z,3.50
2017-08-08T04:48:37.777Z,3.40
2017-08-08T04:49:36.280Z,3.60
2017-08-08T04:50:35.631Z,3.30
2017-08-08T04:51:35.608Z,3.50
2017-08-08T04:52:35.653Z,3.60
2017-08-08T04:53:35.626Z,3.40
2017-08-08T04:54:35.632Z,3.40
2017-08-08T04:55:36.288Z,3.10
2017-08-08T04:56:35.662Z,3.20
2017-08-08T04:57:35.648Z,2.90
2017-08-08T04:58:36.295Z,3.40
2017-08-08T04:59:36.294Z,3.70
2017-08-08T05:00:36.296Z,3.40
2017-08-08T05:01:36.492Z,3.20
2017-08-08T05:02:35.673Z,3.30
2017-08-08T05:03:36.533Z,3.80
2017-08-08T05:04:35.648Z,3.60
2017-08-08T05:05:35.666Z,3.20
2017-08-08T05:06:36.521Z,3.60
2017-08-08T05:07:36.310Z,3.50
2017-08-08T05:08:37.310Z,3.20
2017-08-08T05:09:36.315Z,3.40
2017-08-08T05:10:36.525Z,3.40
2017-08-08T05:11:35.642Z,3.20
2017-08-08T05:12:35.731Z,3.50
2017-08-08T05:13:35.652Z,3.40
2017-08-08T05:14:35.647Z,3.80
2017-08-08T05:15:35.638Z,3.40
2017-08-08T05:16:36.323Z,4.10
2017-08-08T05:17:35.571Z,3.70
2017-08-08T05:18:36.412Z,3.60
2017-08-08T05:19:36.094Z,3.40
2017-08-08T05:20:36.432Z,3.50
2017-08-08T05:21:36.466Z,3.50
2017-08-08T05:22:37.338Z,3.50
2017-08-08T05:23:35.591Z,3.70
2017-08-08T05:24:36.364Z,3.40
2017-08-08T05:25:36.602Z,4.00
2017-08-08T05:26:35.685Z,3.40
2017-08-08T05:27:35.652Z,3.40
2017-08-08T05:28:35.605Z,3.50
2017-08-08T05:29:36.344Z,3.60
2017-08-08T05:30:35.574Z,3.30
2017-08-08T05:31:35.664Z,3.20
2017-08-08T05:32:36.438Z,3.30
2017-08-08T05:33:35.711Z,3.40
2017-08-08T05:34:35.509Z,3.50
2017-08-08T05:35:35.600Z,3.30
2017-08-08T05:36:36.354Z,2.90
2017-08-08T05:37:35.582Z,3.10
2017-08-08T05:38:35.651Z,3.50
2017-08-08T05:39:35.604Z,3.50
2017-08-08T05:40:35.512Z,3.40
2017-08-08T05:41:35.637Z,3.60
2017-08-08T05:42:35.699Z,3.50
2017-08-08T05:43:36.366Z,3.70
2017-08-08T05:44:37.027Z,3.30
2017-08-08T05:45:35.693Z,3.30
2017-08-08T05:46:35.556Z,3.70
2017-08-08T05:47:36.380Z,3.70
2017-08-08T05:48:36.393Z,3.30
2017-08-08T05:49:35.531Z,3.40
2017-08-08T05:50:36.877Z,3.40
2017-08-08T05:51:35.640Z,3.80
2017-08-08T05:52:35.715Z,3.50
2017-08-08T05:53:36.492Z,3.40
2017-08-08T05:54:35.607Z,3.50
2017-08-08T05:55:36.673Z,3.30
2017-08-08T05:56:36.395Z,3.80
2017-08-08T05:57:36.400Z,3.30
2017-08-08T05:58:35.625Z,3.10
2017-08-08T05:59:36.395Z,3.30
2017-08-08T06:00:36.506Z,3.50
2017-08-08T06:01:35.613Z,3.50
2017-08-08T06:02:36.544Z,3.50
2017-08-08T06:03:35.620Z,3.70
2017-08-08T06:04:35.599Z,3.30
2017-08-08T06:05:36.546Z,3.40
2017-08-08T06:06:36.427Z,3.20
2017-08-08T06:07:35.594Z,4.00
2017-08-08T06:08:36.573Z,3.50
2017-08-08T06:09:35.604Z,3.80
2017-08-08T06:10:35.671Z,3.60
2017-08-08T06:11:36.412Z,3.60
2017-08-08T06:12:36.526Z,3.60
2017-08-08T06:13:37.020Z,3.50
2017-08-08T06:14:35.585Z,3.50
2017-08-08T06:15:35.647Z,3.30
2017-08-08T06:16:35.603Z,3.30
2017-08-08T06:17:35.600Z,3.50
2017-08-08T06:18:36.427Z,3.80
2017-08-08T06:19:36.427Z,3.20
2017-08-08T06:20:35.626Z,3.60
2017-08-08T06:21:36.428Z,4.30
2017-08-08T06:22:36.459Z,4.30
2017-08-08T06:23:36.431Z,3.80
2017-08-08T06:24:35.672Z,3.60
2017-08-08T06:25:35.547Z,3.90
2017-08-08T06:26:35.666Z,4.20
2017-08-08T06:27:35.642Z,4.10
2017-08-08T06:28:35.605Z,4.30
2017-08-08T06:29:36.448Z,3.60
2017-08-08T06:30:35.960Z,4.10
2017-08-08T06:31:35.613Z,3.50
2017-08-08T06:32:35.566Z,3.40
2017-08-08T06:33:35.614Z,3.50
2017-08-08T06:34:35.527Z,3.40
2017-08-08T06:35:36.452Z,3.40
2017-08-08T06:36:35.658Z,3.50
2017-08-08T06:37:36.455Z,3.70
2017-08-08T06:38:35.647Z,3.60
2017-08-08T06:39:36.463Z,3.70
2017-08-08T06:40:35.600Z,3.40
2017-08-08T06:41:36.463Z,3.90
2017-08-08T06:42:35.631Z,3.60
2017-08-08T06:43:36.464Z,3.30
2017-08-08T06:44:35.556Z,3.60
2017-08-08T06:45:35.571Z,3.80
2017-08-08T06:46:35.970Z,3.70
2017-08-08T06:47:35.682Z,3.20
2017-08-08T06:48:35.647Z,4.10
2017-08-08T06:49:35.599Z,3.80
2017-08-08T06:50:35.615Z,3.50
2017-08-08T06:51:35.622Z,3.70
2017-08-08T06:52:35.619Z,3.90
2017-08-08T06:53:35.982Z,3.80
2017-08-08T06:54:35.983Z,3.70
2017-08-08T06:55:35.988Z,3.70
2017-08-08T06:56:36.101Z,3.50
2017-08-08T06:57:36.175Z,4.10
2017-08-08T06:58:36.488Z,3.50
2017-08-08T06:59:36.118Z,3.60
2017-08-08T07:00:37.523Z,3.90
2017-08-08T07:01:36.157Z,3.80
2017-08-08T07:02:35.639Z,3.70
2017-08-08T07:03:36.055Z,3.40
2017-08-08T07:04:35.588Z,3.70
2017-08-08T07:05:36.500Z,3.80
2017-08-08T07:06:35.510Z,3.90
2017-08-08T07:07:35.647Z,3.70
2017-08-08T07:08:36.019Z,3.50
2017-08-08T07:09:36.044Z,3.30
2017-08-08T07:10:36.009Z,3.60
2017-08-08T07:11:35.497Z,3.70
2017-08-08T07:12:35.541Z,3.30
2017-08-08T07:13:35.622Z,3.90
2017-08-08T07:14:36.022Z,4.10
2017-08-08T07:15:35.498Z,3.30
2017-08-08T07:16:35.588Z,3.50
2017-08-08T07:17:35.614Z,3.30
2017-08-08T07:18:35.540Z,4.00
2017-08-08T07:19:36.027Z,3.50
2017-08-08T07:20:35.598Z,3.70
2017-08-08T07:21:36.526Z,3.70
2017-08-08T07:22:36.190Z,3.60
2017-08-08T07:23:36.031Z,3.50
2017-08-08T07:24:35.586Z,3.90
2017-08-08T07:25:36.035Z,3.50
2017-08-08T07:26:35.603Z,3.40
2017-08-08T07:27:35.758Z,3.60
2017-08-08T07:28:35.481Z,3.50
2017-08-08T07:29:35.614Z,4.20
2017-08-08T07:30:36.146Z,3.70
2017-08-08T07:31:35.599Z,3.60
2017-08-08T07:36:24.453Z,3.80
2017-08-08T07:37:24.539Z,3.40
2017-08-08T07:38:24.985Z,3.70
2017-08-08T07:39:24.500Z,4.20
2017-08-08T07:40:25.259Z,3.10
2017-08-08T07:41:24.564Z,4.40
2017-08-08T07:42:25.352Z,4.10
2017-08-08T07:43:26.264Z,3.80
2017-08-08T07:44:24.469Z,3.60
2017-08-08T07:45:24.555Z,3.60
2017-08-08T07:46:25.269Z,3.70
2017-08-08T07:47:24.543Z,3.40
2017-08-08T07:48:24.557Z,3.80
2017-08-08T07:49:24.554Z,4.00
2017-08-08T07:50:25.520Z,2.60
2017-08-08T07:51:24.506Z,2.90
2017-08-08T07:52:25.279Z,3.50
2017-08-08T07:53:24.561Z,3.10
2017-08-08T07:54:25.469Z,3.50
2017-08-08T07:55:25.296Z,3.40
2017-08-08T07:56:24.587Z,3.60
2017-08-08T07:57:25.288Z,3.80
2017-08-08T07:58:25.291Z,3.00
2017-08-08T07:59:24.622Z,3.60
2017-08-08T08:00:24.479Z,3.50
2017-08-08T08:01:25.309Z,3.70
2017-08-08T08:02:24.583Z,3.50
2017-08-08T08:03:24.536Z,3.00
2017-08-08T08:04:25.847Z,4.40
2017-08-08T08:05:24.551Z,4.10
2017-08-08T08:06:25.502Z,3.60
2017-08-08T08:07:25.323Z,3.40
2017-08-08T08:08:24.709Z,3.30
2017-08-08T08:09:25.342Z,3.50
2017-08-08T08:10:24.522Z,3.70
2017-08-08T08:11:24.640Z,4.00
2017-08-08T08:12:24.555Z,3.40
2017-08-08T08:13:24.475Z,2.90
2017-08-08T08:14:25.337Z,3.50
2017-08-08T08:15:26.317Z,3.60
2017-08-08T08:16:25.473Z,4.80
2017-08-08T08:17:24.658Z,3.60
2017-08-08T08:18:26.119Z,3.90
2017-08-08T08:19:24.524Z,2.90
2017-08-08T08:20:24.433Z,4.20
2017-08-08T08:21:24.529Z,3.30
2017-08-08T08:22:24.576Z,3.70
2017-08-08T08:23:25.097Z,3.40
2017-08-08T08:24:25.351Z,4.40
2017-08-08T08:25:24.526Z,3.30
2017-08-08T08:26:24.464Z,4.00
2017-08-08T08:27:24.419Z,3.00
2017-08-08T08:28:25.548Z,3.70
2017-08-08T08:29:25.343Z,3.50
2017-08-08T08:30:24.584Z,4.20
2017-08-08T08:31:24.504Z,4.00
2017-08-08T08:32:25.399Z,3.70
2017-08-08T08:33:24.534Z,3.80
2017-08-08T08:34:25.372Z,3.80
2017-08-08T08:35:25.048Z,3.90
2017-08-08T08:36:24.853Z,4.10
2017-08-08T08:37:24.585Z,3.40
2017-08-08T08:38:25.357Z,3.70
2017-08-08T08:39:25.356Z,3.20
2017-08-08T08:40:24.506Z,2.80
2017-08-08T08:41:24.489Z,4.20
2017-08-08T08:42:24.629Z,3.10
2017-08-08T08:43:24.871Z,3.90
2017-08-08T08:44:24.526Z,3.10
2017-08-08T08:45:24.517Z,4.00
2017-08-08T08:46:24.570Z,2.90
2017-08-08T08:47:24.550Z,3.30
2017-08-08T08:48:24.526Z,3.40
2017-08-08T08:49:24.978Z,3.40
2017-08-08T08:50:24.660Z,3.70
2017-08-08T08:51:24.471Z,3.40
2017-08-08T08:52:25.386Z,3.20
2017-08-08T08:53:24.514Z,3.20
2017-08-08T08:54:24.643Z,3.50
2017-08-08T08:55:24.589Z,4.30
2017-08-08T08:56:24.532Z,3.60
2017-08-08T08:57:24.574Z,3.50
2017-08-08T08:58:24.511Z,4.00
2017-08-08T08:59:25.390Z,3.70
2017-08-08T09:00:24.892Z,3.70
2017-08-08T09:01:24.511Z,4.30
2017-08-08T09:02:24.446Z,3.30
2017-08-08T09:03:24.571Z,2.80
2017-08-08T09:04:24.498Z,4.30
2017-08-08T09:05:24.499Z,3.70
2017-08-08T09:06:24.397Z,3.60
2017-08-08T09:07:24.568Z,3.80
2017-08-08T09:08:24.904Z,4.20
2017-08-08T09:09:25.049Z,3.60
2017-08-08T09:10:24.565Z,3.90
2017-08-08T09:11:24.909Z,3.50
2017-08-08T09:12:24.975Z,4.40
2017-08-08T09:13:25.129Z,4.60
2017-08-08T09:14:24.524Z,3.90
2017-08-08T09:15:24.915Z,4.20
2017-08-08T09:16:24.432Z,3.60
2017-08-08T09:17:24.504Z,4.00
2017-08-08T09:18:24.565Z,3.40
2017-08-08T09:19:24.456Z,3.70
2017-08-08T09:20:24.489Z,4.20
2017-08-08T09:21:25.446Z,3.60
2017-08-08T09:22:24.494Z,5.70
2017-08-08T09:23:24.502Z,4.10
2017-08-08T09:24:24.433Z,4.00
2017-08-08T09:25:24.513Z,4.20
2017-08-08T09:26:24.504Z,4.40
2017-08-08T09:27:24.935Z,3.60
2017-08-08T09:28:24.529Z,4.60
2017-08-08T09:29:25.443Z,4.00
2017-08-08T09:30:24.436Z,3.80
2017-08-08T09:31:24.437Z,3.60
2017-08-08T09:32:24.456Z,4.00
2017-08-08T09:33:24.550Z,3.50
2017-08-08T09:34:24.577Z,3.50
2017-08-08T09:35:25.953Z,3.00
2017-08-08T09:36:24.981Z,4.80
2017-08-08T09:37:24.509Z,3.90
2017-08-08T09:38:25.526Z,7.10
2017-08-08T09:39:25.064Z,3.90
2017-08-08T09:40:24.501Z,4.00
2017-08-08T09:41:24.504Z,3.80
2017-08-08T09:42:25.054Z,4.60
2017-08-08T09:43:24.468Z,3.80
2017-08-08T09:44:25.462Z,3.80
2017-08-08T09:45:24.462Z,4.30
2017-08-08T09:46:24.512Z,4.10
2017-08-08T09:47:24.579Z,4.10
2017-08-08T09:48:24.575Z,4.00
2017-08-08T09:49:24.519Z,3.90
2017-08-08T09:50:24.443Z,5.20
2017-08-08T09:51:24.514Z,4.30
2017-08-08T09:52:24.455Z,4.30
2017-08-08T09:53:24.462Z,4.50
2017-08-08T09:54:25.535Z,4.20
2017-08-08T09:55:24.479Z,3.70
2017-08-08T09:56:25.055Z,3.10
2017-08-08T09:57:24.547Z,3.80
2017-08-08T09:58:24.561Z,3.20
2017-08-08T09:59:24.370Z,4.00
2017-08-08T10:00:24.469Z,3.20
2017-08-08T10:01:24.991Z,4.70
2017-08-08T10:02:25.014Z,3.70
2017-08-08T10:03:26.001Z,3.90
2017-08-08T10:04:24.412Z,4.20
2017-08-08T10:05:26.003Z,4.40
2017-08-08T10:06:25.026Z,4.60
2017-08-08T10:07:25.522Z,3.90
2017-08-08T10:08:24.374Z,4.30
2017-08-08T10:09:24.461Z,4.10
2017-08-08T10:10:24.492Z,4.30
2017-08-08T10:11:26.014Z,3.80
2017-08-08T10:12:24.403Z,4.70
2017-08-08T10:13:24.371Z,5.20
2017-08-08T10:14:25.012Z,4.80
2017-08-08T10:15:25.156Z,4.00
2017-08-08T10:16:24.456Z,3.60
2017-08-08T10:17:25.926Z,3.70
2017-08-08T10:18:24.446Z,4.50
2017-08-08T10:19:25.020Z,3.20
2017-08-08T10:20:25.021Z,4.50
2017-08-08T10:21:25.037Z,4.10
2017-08-08T10:22:25.220Z,5.20
2017-08-08T10:23:25.028Z,3.80
2017-08-08T10:24:26.032Z,4.10
2017-08-08T10:25:25.031Z,4.60
2017-08-08T10:26:24.399Z,4.00
2017-08-08T10:27:25.186Z,4.60
2017-08-08T10:28:25.040Z,4.50
2017-08-08T10:29:24.438Z,4.10
2017-08-08T10:30:27.289Z,4.80
2017-08-08T10:31:24.532Z,4.80
2017-08-08T10:32:25.041Z,4.00
2017-08-08T10:33:25.189Z,4.60
2017-08-08T10:34:25.046Z,3.90
2017-08-08T10:35:24.417Z,4.30
2017-08-08T10:36:24.442Z,4.20
2017-08-08T10:37:25.671Z,4.30
2017-08-08T10:38:25.052Z,4.10
2017-08-08T10:39:25.053Z,4.70
2017-08-08T10:40:24.429Z,4.70
2017-08-08T10:41:25.056Z,4.10
2017-08-08T10:42:25.558Z,5.50
2017-08-08T10:43:24.551Z,4.60
2017-08-08T10:44:25.063Z,4.90
2017-08-08T10:45:24.404Z,4.40
2017-08-08T10:46:24.435Z,4.10
2017-08-08T10:47:24.421Z,4.60
2017-08-08T10:48:25.271Z,5.50
2017-08-08T10:49:25.082Z,4.80
2017-08-08T10:50:25.263Z,4.60
2017-08-08T10:51:24.460Z,5.00
2017-08-08T10:52:26.085Z,4.70
2017-08-08T10:53:25.359Z,4.40
2017-08-08T10:54:25.079Z,4.80
2017-08-08T10:55:24.441Z,5.30
2017-08-08T10:56:25.152Z,4.40
2017-08-08T10:57:25.270Z,5.10
2017-08-08T10:58:24.520Z,4.50
2017-08-08T10:59:24.487Z,4.50
2017-08-08T11:00:25.295Z,4.70
2017-08-08T11:01:24.449Z,4.10
2017-08-08T11:02:24.383Z,4.90
2017-08-08T11:03:26.593Z,3.80
2017-08-08T11:04:25.194Z,4.40
2017-08-08T11:05:25.215Z,4.60
2017-08-08T11:06:24.741Z,4.60
2017-08-08T11:07:24.446Z,4.20
2017-08-08T11:08:25.103Z,5.50
2017-08-08T11:09:25.102Z,4.60
2017-08-08T11:10:24.429Z,4.80
2017-08-08T11:11:24.484Z,4.80
2017-08-08T11:12:25.184Z,4.90
2017-08-08T11:13:24.484Z,4.30
2017-08-08T11:14:26.111Z,4.00
2017-08-08T11:15:24.480Z,5.10
2017-08-08T11:16:24.419Z,4.30
2017-08-08T11:17:24.463Z,5.00
2017-08-08T11:18:26.117Z,4.70
2017-08-08T11:19:24.416Z,4.30
2017-08-08T11:20:24.469Z,4.10
2017-08-08T11:21:24.373Z,4.80
2017-08-08T11:22:24.418Z,4.70
2017-08-08T11:23:25.127Z,4.70
2017-08-08T11:24:24.396Z,4.80
2017-08-08T11:25:25.134Z,5.40
2017-08-08T11:26:24.515Z,4.40
2017-08-08T11:27:24.407Z,4.40
2017-08-08T11:28:25.133Z,3.40
2017-08-08T11:29:24.433Z,4.40
2017-08-08T11:30:24.373Z,4.90
2017-08-08T11:31:24.411Z,4.50
2017-08-08T11:32:24.470Z,5.40
2017-08-08T11:33:24.421Z,4.80
2017-08-08T11:34:24.395Z,4.80
2017-08-08T11:35:24.464Z,5.10
2017-08-08T11:36:25.150Z,5.50
2017-08-08T11:37:24.469Z,4.40
2017-08-08T11:38:25.177Z,5.60
2017-08-08T11:39:24.872Z,5.10
2017-08-08T11:40:24.432Z,5.80
2017-08-08T11:41:26.156Z,4.80
2017-08-08T11:42:24.406Z,5.90
2017-08-08T11:43:24.465Z,5.10
2017-08-08T11:44:25.458Z,4.70
2017-08-08T11:45:24.476Z,6.00
2017-08-08T11:46:24.461Z,4.50
2017-08-08T11:47:24.369Z,6.60
2017-08-08T11:48:25.239Z,5.30
2017-08-08T11:49:24.386Z,5.60
2017-08-08T11:50:24.475Z,4.80
2017-08-08T11:51:25.175Z,4.40
2017-08-08T11:52:25.576Z,4.90
2017-08-08T11:53:25.316Z,4.60
2017-08-08T11:54:25.358Z,4.50
2017-08-08T11:55:26.178Z,4.40
2017-08-08T11:56:26.180Z,4.30
2017-08-08T11:57:25.215Z,5.50
2017-08-08T11:58:25.200Z,4.50
2017-08-08T11:59:26.189Z,4.60
2017-08-08T12:00:24.449Z,4.70
2017-08-08T12:01:25.208Z,4.20
2017-08-08T12:02:24.414Z,4.30
2017-08-08T12:03:24.430Z,5.60
2017-08-08T12:04:24.407Z,5.10
2017-08-08T12:05:24.335Z,4.90
2017-08-08T12:06:25.198Z,5.10
2017-08-08T12:07:25.221Z,4.90
2017-08-08T12:08:25.407Z,5.10
2017-08-08T12:09:24.521Z,5.90
2017-08-08T12:10:24.408Z,4.50
2017-08-08T12:11:24.355Z,3.90
2017-08-08T12:12:25.206Z,4.80
2017-08-08T12:13:24.358Z,5.50
2017-08-08T12:14:25.353Z,5.00
2017-08-08T12:15:24.399Z,4.40
2017-08-08T12:16:24.955Z,5.20
2017-08-08T12:17:25.311Z,4.10
2017-08-08T12:18:24.394Z,4.20
2017-08-08T12:19:24.419Z,3.80
2017-08-08T12:20:25.222Z,4.40
2017-08-08T12:21:24.433Z,4.80
2017-08-08T12:22:24.522Z,6.10
2017-08-08T12:23:25.233Z,5.30
2017-08-08T12:24:25.226Z,4.70
2017-08-08T12:25:24.461Z,4.40
2017-08-08T12:26:24.396Z,4.70
2017-08-08T12:27:24.313Z,3.90
2017-08-08T12:28:25.236Z,4.80
2017-08-08T12:29:25.235Z,4.20
2017-08-08T12:30:24.419Z,5.40
2017-08-08T12:31:24.961Z,5.30
2017-08-08T12:32:24.739Z,4.70
2017-08-08T12:33:24.489Z,5.20
2017-08-08T12:34:25.342Z,5.30
2017-08-08T12:35:24.460Z,4.50
2017-08-08T12:36:25.744Z,4.80
2017-08-08T12:37:24.442Z,5.50
2017-08-08T12:38:25.249Z,5.30
2017-08-08T12:39:24.287Z,4.30
2017-08-08T12:40:25.751Z,4.20
2017-08-08T12:41:24.324Z,5.60
2017-08-08T12:42:24.955Z,4.50
2017-08-08T12:43:24.868Z,5.50
2017-08-08T12:44:25.259Z,4.30
2017-08-08T12:45:25.921Z,4.90
2017-08-08T12:46:24.768Z,5.60
2017-08-08T12:47:25.262Z,5.10
2017-08-08T12:48:24.468Z,5.10
2017-08-08T12:49:24.446Z,4.60
2017-08-08T12:50:24.559Z,3.90
2017-08-08T12:51:24.770Z,5.40
2017-08-08T12:52:24.474Z,4.60
2017-08-08T12:53:24.355Z,5.00
2017-08-08T12:54:24.528Z,3.60
2017-08-08T12:55:24.783Z,4.60
2017-08-08T12:56:25.278Z,5.20
2017-08-08T12:57:24.492Z,4.20
2017-08-08T12:58:24.388Z,4.60
2017-08-08T12:59:25.282Z,4.50
2017-08-08T13:00:24.311Z,5.30
2017-08-08T13:01:24.405Z,4.00
2017-08-08T13:02:24.361Z,4.90
2017-08-08T13:03:24.683Z,5.00
2017-08-08T13:04:24.957Z,4.40
2017-08-08T13:05:24.794Z,3.80
2017-08-08T13:06:24.448Z,3.60
2017-08-08T13:07:24.439Z,5.30
2017-08-08T13:08:24.495Z,4.80
2017-08-08T13:09:25.302Z,5.40
2017-08-08T13:10:24.446Z,4.80
2017-08-08T13:11:24.429Z,4.10
2017-08-08T13:12:25.332Z,4.20
2017-08-08T13:13:24.824Z,4.00
2017-08-08T13:14:24.348Z,5.00
2017-08-08T13:15:25.824Z,4.10
2017-08-08T13:16:24.433Z,4.50
2017-08-08T13:17:24.424Z,4.30
2017-08-08T13:18:24.834Z,4.20
2017-08-08T13:19:24.350Z,4.40
2017-08-08T13:20:24.457Z,4.10
2017-08-08T13:21:24.414Z,3.60
2017-08-08T13:22:24.340Z,3.90